createdAt,value
2023-05-18T00:01:54.131Z,2.30
2023-05-18T00:04:24.146Z,2.30
2023-05-18T00:06:56.998Z,1.80
2023-05-18T00:09:25.703Z,1.60
2023-05-18T00:11:53.845Z,2.13
2023-05-18T00:14:23.195Z,2.13
2023-05-18T00:16:53.892Z,1.93
2023-05-18T00:19:24.366Z,2.10
2023-05-18T00:21:55.992Z,1.90
2023-05-18T00:24:24.076Z,2.40
2023-05-18T00:26:52.174Z,2.00
2023-05-18T00:29:20.410Z,2.60
2023-05-18T00:31:48.601Z,2.80
2023-05-18T00:34:16.877Z,2.23
2023-05-18T00:36:44.979Z,2.33
2023-05-18T00:39:14.444Z,2.30
2023-05-18T00:41:42.541Z,2.40
2023-05-18T00:44:10.627Z,2.23
2023-05-18T00:46:38.830Z,2.50
2023-05-18T00:49:07.029Z,2.80
2023-05-18T00:51:35.122Z,2.03
2023-05-18T00:54:06.284Z,2.00
2023-05-18T00:56:35.786Z,2.20
2023-05-18T00:59:04.868Z,2.03
2023-05-18T01:01:34.946Z,2.37
2023-05-18T01:04:14.336Z,2.43
2023-05-18T01:06:47.330Z,2.10
2023-05-18T01:09:16.328Z,3.10
2023-05-18T01:11:52.856Z,2.87
2023-05-18T01:14:29.876Z,2.67
2023-05-18T01:17:04.227Z,3.17
2023-05-18T01:19:58.679Z,3.17
2023-05-18T01:22:44.480Z,2.57
2023-05-18T01:25:19.906Z,2.50
2023-05-18T01:27:49.571Z,2.60
2023-05-18T01:30:18.197Z,2.77
2023-05-18T01:32:47.507Z,3.30
2023-05-18T01:35:15.689Z,2.50
2023-05-18T01:37:43.784Z,3.20
2023-05-18T01:40:12.087Z,2.13
2023-05-18T01:42:43.329Z,2.60
2023-05-18T01:45:16.739Z,2.93
2023-05-18T01:47:47.171Z,3.17
2023-05-18T01:50:19.701Z,3.17
2023-05-18T01:52:49.386Z,3.27
2023-05-18T01:55:17.490Z,2.73
2023-05-18T01:57:46.693Z,3.60
2023-05-18T02:00:17.669Z,2.80
2023-05-18T02:02:46.079Z,3.30
2023-05-18T02:05:14.246Z,3.10
2023-05-18T02:07:44.102Z,3.00
2023-05-18T02:10:13.440Z,3.50
2023-05-18T02:12:41.663Z,2.93
2023-05-18T02:15:10.706Z,2.87
2023-05-18T02:17:40.409Z,3.30
2023-05-18T02:20:10.156Z,3.17
2023-05-18T02:22:38.337Z,3.33
2023-05-18T02:25:07.282Z,3.20
2023-05-18T02:27:36.752Z,2.90
2023-05-18T02:30:05.810Z,3.63
2023-05-18T02:32:38.587Z,3.33
2023-05-18T02:35:09.023Z,2.97
2023-05-18T02:37:40.279Z,3.40
2023-05-18T02:40:11.116Z,3.20
2023-05-18T02:42:39.214Z,3.40
2023-05-18T02:45:08.631Z,3.10
2023-05-18T02:47:36.758Z,3.60
2023-05-18T02:50:05.250Z,3.30
2023-05-18T02:52:35.013Z,3.10
2023-05-18T02:55:03.198Z,2.80
2023-05-18T02:57:32.801Z,3.30
2023-05-18T03:00:00.992Z,2.97
2023-05-18T03:02:30.243Z,2.83
2023-05-18T03:04:58.471Z,3.07
2023-05-18T03:07:27.728Z,3.17
2023-05-18T03:09:57.265Z,3.37
2023-05-18T03:12:25.490Z,3.80
2023-05-18T03:14:53.716Z,3.00
2023-05-18T03:17:21.832Z,3.10
2023-05-18T03:19:50.118Z,3.27
2023-05-18T03:22:18.210Z,3.07
2023-05-18T03:24:46.323Z,3.13
2023-05-18T03:27:17.433Z,2.93
2023-05-18T03:29:45.650Z,2.80
2023-05-18T03:32:13.783Z,3.60
2023-05-18T03:34:41.892Z,3.40
2023-05-18T03:37:10.005Z,3.20
2023-05-18T03:39:38.117Z,3.70
2023-05-18T03:42:06.355Z,3.20
2023-05-18T03:44:35.998Z,3.20
2023-05-18T03:47:04.175Z,3.70
2023-05-18T03:49:34.502Z,3.10
2023-05-18T03:52:03.040Z,3.57
2023-05-18T03:54:31.114Z,3.63
2023-05-18T03:56:59.267Z,3.10
2023-05-18T03:59:27.354Z,3.30
2023-05-18T04:01:56.867Z,3.20
2023-05-18T04:04:27.521Z,3.10
2023-05-18T04:07:06.103Z,3.23
2023-05-18T04:09:34.953Z,3.57
2023-05-18T04:12:03.225Z,2.83
2023-05-18T04:14:33.121Z,3.43
2023-05-18T04:17:05.215Z,3.07
2023-05-18T04:19:34.107Z,3.43
2023-05-18T04:22:04.878Z,3.77
2023-05-18T04:24:34.629Z,2.90
2023-05-18T04:27:02.962Z,3.27
2023-05-18T04:29:31.172Z,3.53
2023-05-18T04:32:01.086Z,3.50
2023-05-18T04:34:31.397Z,3.30
2023-05-18T04:36:59.627Z,3.70
2023-05-18T04:39:27.814Z,3.40
2023-05-18T04:41:58.307Z,3.40
2023-05-18T04:44:27.528Z,3.50
2023-05-18T04:46:55.731Z,3.53
2023-05-18T04:49:23.885Z,3.40
2023-05-18T04:51:55.973Z,2.93
2023-05-18T04:54:24.531Z,3.40
2023-05-18T04:56:52.716Z,3.60
2023-05-18T04:59:20.920Z,3.40
2023-05-18T05:01:49.123Z,3.07
2023-05-18T05:04:17.276Z,3.70
2023-05-18T05:06:45.415Z,4.20
2023-05-18T05:09:15.098Z,3.63
2023-05-18T05:11:43.264Z,3.30
2023-05-18T05:14:11.558Z,3.80
2023-05-18T05:16:47.286Z,3.50
2023-05-18T05:19:15.422Z,3.10
2023-05-18T05:21:43.561Z,3.80
2023-05-18T05:24:11.665Z,3.33
2023-05-18T05:26:41.127Z,3.50
2023-05-18T05:29:09.236Z,3.60
2023-05-18T05:31:37.383Z,3.50
2023-05-18T05:34:05.488Z,3.40
2023-05-18T05:36:33.871Z,3.63
2023-05-18T05:39:01.986Z,3.83
2023-05-18T05:41:31.772Z,3.00
2023-05-18T05:44:02.122Z,2.97
2023-05-18T05:46:30.299Z,4.20
2023-05-18T05:48:58.405Z,2.97
2023-05-18T05:51:26.501Z,3.73
2023-05-18T05:53:54.629Z,3.43
2023-05-18T05:56:22.884Z,3.40
2023-05-18T05:58:51.234Z,3.50
2023-05-18T06:01:20.696Z,3.10
2023-05-18T06:03:48.977Z,3.33
2023-05-18T06:06:17.176Z,3.93
2023-05-18T06:08:45.311Z,3.20
2023-05-18T06:11:13.691Z,3.27
2023-05-18T06:13:41.844Z,3.23
2023-05-18T06:16:09.950Z,3.23
2023-05-18T06:18:39.570Z,3.40
2023-05-18T06:21:07.769Z,3.07
2023-05-18T06:23:35.854Z,3.23
2023-05-18T06:26:04.092Z,3.87
2023-05-18T06:28:32.234Z,3.27
2023-05-18T06:31:00.315Z,2.83
2023-05-18T06:33:28.537Z,2.80
2023-05-18T06:35:58.139Z,2.83
2023-05-18T06:38:29.357Z,2.80
2023-05-18T06:40:57.466Z,3.30
2023-05-18T06:43:26.948Z,2.80
2023-05-18T06:45:55.493Z,2.90
2023-05-18T06:48:25.058Z,3.07
2023-05-18T06:50:53.469Z,3.30
2023-05-18T06:53:23.286Z,3.30
2023-05-18T06:55:51.520Z,2.90
2023-05-18T06:58:19.621Z,2.40
2023-05-18T07:00:48.575Z,2.33
2023-05-18T07:03:16.901Z,2.90
2023-05-18T07:05:45.125Z,2.50
2023-05-18T07:08:13.282Z,2.67
2023-05-18T07:10:42.763Z,2.97
2023-05-18T07:13:10.827Z,2.77
2023-05-18T07:15:39.152Z,2.40
2023-05-18T07:18:07.447Z,2.47
2023-05-18T07:20:35.616Z,2.60
2023-05-18T07:23:03.776Z,2.23
2023-05-18T07:25:32.154Z,2.50
2023-05-18T07:28:01.746Z,2.10
2023-05-18T07:30:29.811Z,1.93
2023-05-18T07:32:57.978Z,2.67
2023-05-18T07:35:26.599Z,2.13
2023-05-18T07:37:55.042Z,2.77
2023-05-18T07:40:23.131Z,1.90
2023-05-18T07:42:51.238Z,2.23
2023-05-18T07:45:21.005Z,2.30
2023-05-18T07:47:49.135Z,2.20
2023-05-18T07:50:17.322Z,2.30
2023-05-18T07:52:45.634Z,2.00
2023-05-18T07:55:13.730Z,2.10
2023-05-18T07:57:41.981Z,1.93
2023-05-18T08:00:11.344Z,2.00
2023-05-18T08:02:40.973Z,2.50
2023-05-18T08:05:10.923Z,2.30
2023-05-18T08:07:42.599Z,2.40
2023-05-18T08:10:11.825Z,2.10
2023-05-18T08:12:39.928Z,2.30
2023-05-18T08:15:09.705Z,2.00
2023-05-18T08:17:37.851Z,1.90
2023-05-18T08:20:10.486Z,2.13
2023-05-18T08:22:38.624Z,2.00
2023-05-18T08:25:07.184Z,2.10
2023-05-18T08:27:35.301Z,2.50
2023-05-18T08:30:03.424Z,2.30
2023-05-18T08:32:32.030Z,1.80
2023-05-18T08:35:00.492Z,2.40
2023-05-18T08:37:31.207Z,2.10
2023-05-18T08:40:00.109Z,1.87
2023-05-18T08:42:38.020Z,1.97
2023-05-18T08:45:22.301Z,2.50
2023-05-18T08:47:51.028Z,2.00
2023-05-18T08:50:21.109Z,1.70
2023-05-18T08:52:56.708Z,2.10
2023-05-18T08:55:24.863Z,2.20
2023-05-18T08:57:56.288Z,2.60
2023-05-18T09:00:24.982Z,1.90
2023-05-18T09:02:53.286Z,2.47
2023-05-18T09:05:21.504Z,2.00
2023-05-18T09:07:51.368Z,2.07
2023-05-18T09:10:19.599Z,2.00
2023-05-18T09:12:48.733Z,2.33
2023-05-18T09:15:17.878Z,2.77
2023-05-18T09:17:46.085Z,2.10
2023-05-18T09:20:14.476Z,1.73
2023-05-18T09:22:42.562Z,2.50
2023-05-18T09:25:12.072Z,2.10
2023-05-18T09:27:40.268Z,2.73
2023-05-18T09:30:12.164Z,2.47
2023-05-18T09:32:40.352Z,2.10
2023-05-18T09:35:09.331Z,2.27
2023-05-18T09:37:37.479Z,1.93
2023-05-18T09:40:06.776Z,2.30
2023-05-18T09:42:39.393Z,1.83
2023-05-18T09:45:17.432Z,2.47
2023-05-18T09:47:45.606Z,2.40
2023-05-18T09:50:13.765Z,1.70
2023-05-18T09:52:43.383Z,2.10
2023-05-18T09:55:11.871Z,2.30
2023-05-18T09:57:42.207Z,1.80
2023-05-18T10:00:12.754Z,1.93
2023-05-18T10:02:41.550Z,2.47
2023-05-18T10:05:20.321Z,2.20
2023-05-18T10:07:49.748Z,2.13
2023-05-18T10:10:18.947Z,2.13
2023-05-18T10:12:48.436Z,2.03
2023-05-18T10:15:16.708Z,1.90
2023-05-18T10:17:45.782Z,1.60
2023-05-18T10:20:15.708Z,1.80
2023-05-18T10:22:43.809Z,2.10
2023-05-18T10:25:12.137Z,1.90
2023-05-18T10:27:40.292Z,2.63
2023-05-18T10:30:10.950Z,2.40
2023-05-18T10:32:39.072Z,2.80
2023-05-18T10:35:08.067Z,2.60
2023-05-18T10:37:36.949Z,2.40
2023-05-18T10:40:06.334Z,1.97
2023-05-18T10:42:34.471Z,1.60
2023-05-18T10:45:02.687Z,1.80
2023-05-18T10:47:32.831Z,2.03
2023-05-18T10:50:01.584Z,1.90
2023-05-18T10:52:31.945Z,2.13
2023-05-18T10:55:00.632Z,2.53
2023-05-18T10:57:31.061Z,2.97
2023-05-18T10:59:59.168Z,2.50
2023-05-18T11:02:27.314Z,2.60
2023-05-18T11:04:57.406Z,1.90
2023-05-18T11:07:28.508Z,2.10
2023-05-18T11:09:56.906Z,2.33
2023-05-18T11:12:26.151Z,2.20
2023-05-18T11:14:55.270Z,2.83
2023-05-18T11:17:23.834Z,1.67
2023-05-18T11:20:16.240Z,2.20
2023-05-18T11:22:48.453Z,2.10
2023-05-18T11:25:41.951Z,1.80
2023-05-18T11:28:11.511Z,1.90
2023-05-18T11:30:50.169Z,2.13
2023-05-18T11:33:23.070Z,1.70
2023-05-18T11:36:07.424Z,1.60
2023-05-18T11:38:53.771Z,1.80
2023-05-18T11:41:29.253Z,1.90
2023-05-18T11:44:17.080Z,1.87
2023-05-18T11:46:56.587Z,2.20
2023-05-18T11:49:25.543Z,2.93
2023-05-18T11:52:05.258Z,1.90
2023-05-18T11:54:39.937Z,2.10
2023-05-18T11:57:08.412Z,2.03
2023-05-18T11:59:38.701Z,2.10
2023-05-18T12:02:07.112Z,1.73
2023-05-18T12:04:35.290Z,1.97
2023-05-18T12:07:08.078Z,1.97
2023-05-18T12:09:36.316Z,1.90
2023-05-18T12:12:04.657Z,1.90
2023-05-18T12:14:32.825Z,1.70
2023-05-18T12:17:01.012Z,1.90
2023-05-18T12:19:29.262Z,2.00
2023-05-18T12:21:58.975Z,1.60
2023-05-18T12:24:28.604Z,1.43
2023-05-18T12:26:57.759Z,1.40
2023-05-18T12:29:25.829Z,1.80
2023-05-18T12:31:53.948Z,1.90
2023-05-18T12:34:22.077Z,1.90
2023-05-18T12:36:54.569Z,2.10
2023-05-18T12:39:22.684Z,1.83
2023-05-18T12:41:52.255Z,2.10
2023-05-18T12:44:20.346Z,1.67
2023-05-18T12:46:49.467Z,2.20
2023-05-18T12:49:19.544Z,1.80
2023-05-18T12:51:47.702Z,1.40
2023-05-18T12:54:15.798Z,1.80
2023-05-18T12:57:02.049Z,1.57
2023-05-18T12:59:30.633Z,1.60
2023-05-18T13:01:59.234Z,1.70
2023-05-18T13:04:34.630Z,1.50
2023-05-18T13:07:02.751Z,1.60
2023-05-18T13:09:30.913Z,1.73
2023-05-18T13:12:07.664Z,1.83
2023-05-18T13:14:39.249Z,1.67
2023-05-18T13:17:07.465Z,1.67
2023-05-18T13:19:36.221Z,1.57
2023-05-18T13:22:04.433Z,1.70
2023-05-18T13:24:32.539Z,1.37
2023-05-18T13:27:02.463Z,1.50
2023-05-18T13:29:30.564Z,1.63
2023-05-18T13:31:58.705Z,1.80
2023-05-18T13:34:26.849Z,1.90
2023-05-18T13:37:00.931Z,1.53
2023-05-18T13:39:29.173Z,1.50
2023-05-18T13:41:57.255Z,1.80
2023-05-18T13:44:26.742Z,2.30
2023-05-18T13:46:54.842Z,2.17
2023-05-18T13:49:23.057Z,1.60
2023-05-18T13:51:51.139Z,1.60
2023-05-18T13:54:19.255Z,1.30
2023-05-18T13:56:47.540Z,2.03
2023-05-18T13:59:19.488Z,1.53
2023-05-18T14:01:49.704Z,1.57
2023-05-18T14:04:17.911Z,2.73
2023-05-18T14:06:46.318Z,1.97
2023-05-18T14:09:14.395Z,1.57
2023-05-18T14:11:42.510Z,1.73
2023-05-18T14:14:11.815Z,1.80
2023-05-18T14:16:39.932Z,1.40
2023-05-18T14:19:09.487Z,1.80
2023-05-18T14:21:37.628Z,2.07
2023-05-18T14:24:07.661Z,1.70
2023-05-18T14:26:36.588Z,2.27
2023-05-18T14:29:04.767Z,1.57
2023-05-18T14:31:32.967Z,1.50
2023-05-18T14:34:01.163Z,1.60
2023-05-18T14:36:31.058Z,1.70
2023-05-18T14:38:59.142Z,1.30
2023-05-18T14:41:27.300Z,1.90
2023-05-18T14:43:55.380Z,1.33
2023-05-18T14:46:23.485Z,1.80
2023-05-18T14:48:51.731Z,1.90
2023-05-18T14:51:19.877Z,1.50
2023-05-18T14:53:49.542Z,1.93
2023-05-18T14:56:17.634Z,1.60
2023-05-18T14:58:45.771Z,1.50
2023-05-18T15:01:13.849Z,2.00
2023-05-18T15:03:42.005Z,1.20
2023-05-18T15:06:10.515Z,1.80
2023-05-18T15:08:38.582Z,2.07
2023-05-18T15:11:08.118Z,1.90
2023-05-18T15:13:36.211Z,1.73
2023-05-18T15:16:04.386Z,1.80
2023-05-18T15:18:32.480Z,1.67
2023-05-18T15:21:00.559Z,1.47
2023-05-18T15:23:35.821Z,1.57
2023-05-18T15:26:04.944Z,1.63
2023-05-18T15:28:35.740Z,2.40
2023-05-18T15:31:03.873Z,1.57
2023-05-18T15:33:31.980Z,1.77
2023-05-18T15:36:06.534Z,1.80
2023-05-18T15:38:34.628Z,1.30
2023-05-18T15:41:02.747Z,1.80
2023-05-18T15:43:31.147Z,1.90
2023-05-18T15:46:00.762Z,1.93
2023-05-18T15:48:29.692Z,1.40
2023-05-18T15:50:57.812Z,1.60
2023-05-18T15:53:25.934Z,2.60
2023-05-18T15:55:58.647Z,2.10
2023-05-18T15:58:27.602Z,1.60
2023-05-18T16:00:55.800Z,2.27
2023-05-18T16:03:25.469Z,2.00
2023-05-18T16:05:53.588Z,1.50
2023-05-18T16:08:21.676Z,1.80
2023-05-18T16:10:49.777Z,1.60
2023-05-18T16:13:26.911Z,1.60
2023-05-18T16:15:54.996Z,1.70
2023-05-18T16:18:24.513Z,1.63
2023-05-18T16:20:52.675Z,1.70
2023-05-18T16:23:20.767Z,1.67
2023-05-18T16:25:48.866Z,1.67
2023-05-18T16:28:16.973Z,1.60
2023-05-18T16:30:47.863Z,1.30
2023-05-18T16:33:16.924Z,1.67
2023-05-18T16:35:46.522Z,1.50
2023-05-18T16:38:17.914Z,1.63
2023-05-18T16:40:46.560Z,1.83
2023-05-18T16:43:14.663Z,1.53
2023-05-18T16:45:42.745Z,1.57
2023-05-18T16:48:10.870Z,1.43
2023-05-18T16:50:39.140Z,1.60
2023-05-18T16:53:08.641Z,1.47
2023-05-18T16:55:41.959Z,1.70
2023-05-18T16:58:10.059Z,1.60
2023-05-18T17:00:38.174Z,2.00
2023-05-18T17:03:06.622Z,1.70
2023-05-18T17:05:35.652Z,1.53
2023-05-18T17:08:03.727Z,1.63
2023-05-18T17:10:35.537Z,1.20
2023-05-18T17:13:03.730Z,1.50
2023-05-18T17:15:32.030Z,1.60
2023-05-18T17:18:00.263Z,1.47
2023-05-18T17:20:28.520Z,1.30
2023-05-18T17:22:56.874Z,2.00
2023-05-18T17:25:25.042Z,1.57
2023-05-18T17:27:54.518Z,1.70
2023-05-18T17:30:22.726Z,1.47
2023-05-18T17:32:51.004Z,1.60
2023-05-18T17:35:19.292Z,1.57
2023-05-18T17:37:48.898Z,1.60
2023-05-18T17:40:17.121Z,1.50
2023-05-18T17:42:45.208Z,1.70
2023-05-18T17:45:14.690Z,1.50
2023-05-18T17:47:42.824Z,1.60
2023-05-18T17:50:11.576Z,1.60
2023-05-18T17:52:39.670Z,1.40
2023-05-18T17:55:09.069Z,1.67
2023-05-18T17:57:45.531Z,1.63
2023-05-18T18:00:16.366Z,1.73
2023-05-18T18:02:44.512Z,2.00
2023-05-18T18:05:13.082Z,1.47
2023-05-18T18:07:41.919Z,1.67
2023-05-18T18:10:11.237Z,1.50
2023-05-18T18:12:39.338Z,2.00
2023-05-18T18:15:08.605Z,2.07
2023-05-18T18:17:38.155Z,2.60
2023-05-18T18:20:07.744Z,1.60
2023-05-18T18:22:41.982Z,2.20
2023-05-18T18:25:10.258Z,2.47
2023-05-18T18:27:38.393Z,2.47
2023-05-18T18:30:07.548Z,2.20
2023-05-18T18:32:37.032Z,3.23
2023-05-18T18:35:05.623Z,1.93
2023-05-18T18:37:33.745Z,2.60
2023-05-18T18:40:01.835Z,2.10
2023-05-18T18:42:29.959Z,3.03
2023-05-18T18:44:58.050Z,2.20
2023-05-18T18:47:26.256Z,2.07
2023-05-18T18:49:55.854Z,2.97
2023-05-18T18:52:23.951Z,2.73
2023-05-18T18:54:52.083Z,2.70
2023-05-18T18:57:20.226Z,2.17
2023-05-18T18:59:54.030Z,2.87
2023-05-18T19:02:23.706Z,2.70
2023-05-18T19:04:52.762Z,2.40
2023-05-18T19:07:22.304Z,2.80
2023-05-18T19:09:50.571Z,3.00
2023-05-18T19:12:18.675Z,2.50
2023-05-18T19:14:46.762Z,2.87
2023-05-18T19:17:14.883Z,2.90
2023-05-18T19:19:42.987Z,2.93
2023-05-18T19:22:11.081Z,2.80
2023-05-18T19:24:40.542Z,2.90
2023-05-18T19:27:08.651Z,2.70
2023-05-18T19:29:37.427Z,2.73
2023-05-18T19:32:06.519Z,2.57
2023-05-18T19:34:34.692Z,3.30
2023-05-18T19:37:02.839Z,3.33
2023-05-18T19:39:30.982Z,2.70
2023-05-18T19:42:00.992Z,2.90
2023-05-18T19:44:29.131Z,2.63
2023-05-18T19:46:57.234Z,3.37
2023-05-18T19:49:25.349Z,2.97
2023-05-18T19:51:53.472Z,3.30
2023-05-18T19:54:21.954Z,2.70
2023-05-18T19:56:50.043Z,3.03
2023-05-18T19:59:19.540Z,2.50
2023-05-18T20:01:47.701Z,2.40
2023-05-18T20:04:15.993Z,2.83
2023-05-18T20:06:44.258Z,2.40
2023-05-18T20:09:12.384Z,2.30
2023-05-18T20:11:40.449Z,2.47
2023-05-18T20:14:08.602Z,2.90
2023-05-18T20:16:39.804Z,2.80
2023-05-18T20:19:08.538Z,2.57
2023-05-18T20:21:36.942Z,2.70
2023-05-18T20:24:05.256Z,2.50
2023-05-18T20:26:33.362Z,3.00
2023-05-18T20:29:01.454Z,2.83
2023-05-18T20:31:29.573Z,2.60
2023-05-18T20:33:59.066Z,2.43
2023-05-18T20:36:30.890Z,2.50
2023-05-18T20:38:59.368Z,3.13
2023-05-18T20:41:28.341Z,2.60
2023-05-18T20:43:56.448Z,2.80
2023-05-18T20:46:25.088Z,2.80
2023-05-18T20:48:55.287Z,2.60
2023-05-18T20:51:24.953Z,2.53
2023-05-18T20:53:53.028Z,3.07
2023-05-18T20:56:21.944Z,2.60
2023-05-18T20:58:50.465Z,2.90
2023-05-18T21:01:18.914Z,2.30
2023-05-18T21:03:48.051Z,2.60
2023-05-18T21:06:16.197Z,2.50
2023-05-18T21:08:45.845Z,2.27
2023-05-18T21:11:14.084Z,2.37
2023-05-18T21:13:42.195Z,2.70
2023-05-18T21:16:10.770Z,2.60
2023-05-18T21:18:38.978Z,2.70
2023-05-18T21:21:07.055Z,2.87
2023-05-18T21:23:35.418Z,2.70
2023-05-18T21:26:04.894Z,2.83
2023-05-18T21:28:32.986Z,2.90
2023-05-18T21:31:01.286Z,2.47
2023-05-18T21:33:29.684Z,2.90
2023-05-18T21:35:58.706Z,3.10
2023-05-18T21:38:26.842Z,2.50
2023-05-18T21:40:56.429Z,2.37
2023-05-18T21:43:25.996Z,2.43
2023-05-18T21:45:54.159Z,3.10
2023-05-18T21:48:22.319Z,2.73
2023-05-18T21:50:50.460Z,2.93
2023-05-18T21:53:18.840Z,2.50
2023-05-18T21:55:46.922Z,2.37
2023-05-18T21:58:15.006Z,2.70
2023-05-18T22:00:44.558Z,2.53
2023-05-18T22:03:12.726Z,2.60
2023-05-18T22:05:44.687Z,2.80
2023-05-18T22:08:12.862Z,3.07
2023-05-18T22:10:41.655Z,2.70
2023-05-18T22:13:09.841Z,2.30
2023-05-18T22:15:37.949Z,2.50
2023-05-18T22:18:07.557Z,2.50
2023-05-18T22:20:36.572Z,3.37
2023-05-18T22:23:04.684Z,2.27
2023-05-18T22:25:32.897Z,2.90
2023-05-18T22:28:01.075Z,2.40
2023-05-18T22:30:29.625Z,2.50
2023-05-18T22:32:58.658Z,2.17
2023-05-18T22:35:28.280Z,2.60
2023-05-18T22:37:56.416Z,2.50
2023-05-18T22:40:24.602Z,2.67
2023-05-18T22:42:55.017Z,2.40
2023-05-18T22:45:23.152Z,2.50
2023-05-18T22:47:52.796Z,2.60
2023-05-18T22:50:21.244Z,2.20
2023-05-18T22:52:50.858Z,2.23
2023-05-18T22:55:19.127Z,2.27
2023-05-18T22:57:47.257Z,2.57
2023-05-18T23:00:16.583Z,2.57
2023-05-18T23:02:44.753Z,2.53
2023-05-18T23:05:13.297Z,2.40
2023-05-18T23:07:41.877Z,2.47
2023-05-18T23:10:12.509Z,2.27
2023-05-18T23:12:41.641Z,2.27
2023-05-18T23:15:10.862Z,3.03
2023-05-18T23:17:39.607Z,2.03
2023-05-18T23:20:10.473Z,2.60
2023-05-18T23:22:38.560Z,2.77
2023-05-18T23:25:08.846Z,2.80
2023-05-18T23:27:38.504Z,2.57
2023-05-18T23:30:07.835Z,2.50
2023-05-18T23:32:36.707Z,2.30
2023-05-18T23:35:05.705Z,2.87
2023-05-18T23:37:33.968Z,2.77
2023-05-18T23:40:02.552Z,2.43
2023-05-18T23:42:31.248Z,3.10
2023-05-18T23:45:02.186Z,2.37
2023-05-18T23:47:30.682Z,2.43
2023-05-18T23:49:59.370Z,2.83
2023-05-18T23:52:28.030Z,2.67
2023-05-18T23:54:58.663Z,3.20
2023-05-18T23:57:27.285Z,2.70
2023-05-18T23:59:55.510Z,3.20
